Time;durP1;ratioP1;P1;durP2;ratioP2;P2;SDS_P1;SDS_P2;PMS_P1;PMS_P2;Temp;Humidity;BMP_temperature;BMP_pressure;BME280_temperature;BME280_humidity;BME280_pressure;Samples;Min_cycle;Max_cycle;Signal;HPM_P1;HPM_P2
2021/01/28 00:00:29;;;;;;;1.70;1.60;;;;;;;10.13;84.97;99382.81;6217382;23;20091;-81
2021/01/28 00:03:05;;;;;;;;;;;;;;;;;;;;;
2021/01/28 00:05:37;;;;;;;2.20;1.85;;;;;;;10.06;85.34;99374.13;6217031;23;20065;-83
2021/01/28 00:08:10;;;;;;;1.85;1.75;;;;;;;10.18;85.41;99396.41;6209808;23;20004;-79
2021/01/28 00:10:39;;;;;;;1.50;1.40;;;;;;;9.95;85.58;99376.97;6186499;23;20103;-79
2021/01/28 00:13:07;;;;;;;2.38;2.28;;;;;;;9.96;85.47;99383.25;6207950;23;20009;-79
2021/01/28 00:15:38;;;;;;;2.80;2.60;;;;;;;10.16;85.83;99409.53;6208081;23;20099;-77
2021/01/28 00:18:18;;;;;;;;;;;;;;;;;;;;;
2021/01/28 00:20:47;;;;;;;2.53;2.42;;;;;;;10.09;85.82;99366.19;6212604;23;20063;-80
2021/01/28 00:23:13;;;;;;;3.13;2.92;;;;;;;10.14;85.56;99370.78;6208867;23;20309;-80
2021/01/28 00:25:42;;;;;;;4.53;4.22;;;;;;;10.16;85.76;99365.03;6211576;23;20000;-80
2021/01/28 00:28:12;;;;;;;3.63;3.45;;;;;;;10.16;85.77;99365.03;6213784;23;20036;-80
2021/01/28 00:30:57;;;;;;;3.17;2.97;;;;;;;10.25;85.84;99369.56;6208324;23;20083;-80
2021/01/28 00:33:25;;;;;;;4.43;3.28;;;;;;;10.11;85.65;99342.13;6213385;23;20009;-80
2021/01/28 00:35:52;;;;;;;3.28;3.13;;;;;;;10.26;85.87;99365.72;6185948;23;20058;-79
2021/01/28 00:38:23;;;;;;;3.00;2.80;;;;;;;10.27;85.86;99372.81;6210487;23;20004;-79
2021/01/28 00:41:00;;;;;;;;;;;;;;;;;;;;;
2021/01/28 00:47:32;;;;;;;3.78;3.53;;;;;;;10.37;85.76;99377.41;6131998;23;20133;-78
2021/01/28 00:50:18;;;;;;;;;;;;;;;;;;;;;
2021/01/28 00:52:44;;;;;;;3.03;2.90;;;;;;;10.36;85.62;99366.75;6211821;23;20084;-79
2021/01/28 00:55:12;;;;;;;3.13;2.92;;;;;;;10.34;85.62;99349.81;6185902;23;20051;-80
2021/01/28 00:57:38;;;;;;;3.88;3.67;;;;;;;10.34;85.84;99352.56;6208580;23;20001;-79
2021/01/28 01:00:34;;;;;;;3.17;2.97;;;;;;;10.42;85.39;99351.94;6160366;23;20012;-80
2021/01/28 01:03:00;;;;;;;2.65;2.55;;;;;;;10.34;85.61;99349.81;6208757;23;20013;-81
2021/01/28 01:05:28;;;;;;;2.85;2.75;;;;;;;10.33;85.84;99331.78;6187604;23;20150;-79
2021/01/28 01:07:58;;;;;;;2.83;2.65;;;;;;;10.41;85.75;99331.16;6184312;23;20412;-78
2021/01/28 01:10:52;;;;;;;2.78;2.65;;;;;;;10.47;85.95;99321.81;6214128;23;20004;-83
2021/01/28 01:13:30;;;;;;;2.55;2.45;;;;;;;10.44;85.69;99312.28;6207345;23;20062;-81
2021/01/28 01:15:57;;;;;;;3.35;2.63;;;;;;;10.48;85.28;99296.94;6208249;23;20048;-78
2021/01/28 01:18:28;;;;;;;2.95;2.85;;;;;;;10.48;85.94;99285.16;6222293;23;20005;-83
2021/01/28 01:20:54;;;;;;;2.42;2.22;;;;;;;10.53;85.68;99287.00;6196556;23;20008;-80
2021/01/28 01:23:20;;;;;;;3.00;2.00;;;;;;;10.45;86.06;99258.41;6215231;23;20001;-80
2021/01/28 01:25:46;;;;;;;2.47;2.35;;;;;;;10.60;86.29;99282.81;6195689;23;20011;-81
2021/01/28 01:28:12;;;;;;;2.08;1.98;;;;;;;10.57;86.50;99261.56;6197415;23;20004;-82
2021/01/28 01:30:40;;;;;;;1.60;1.50;;;;;;;10.59;86.73;99267.53;6219890;23;20052;-80
2021/01/28 01:33:21;;;;;;;2.72;1.70;;;;;;;10.60;86.65;99258.22;6163225;23;20424;-80
2021/01/28 01:35:51;;;;;;;1.55;1.50;;;;;;;10.51;87.03;99240.84;6216497;23;19996;-80
2021/01/28 01:38:21;;;;;;;1.92;1.85;;;;;;;10.54;87.15;99247.63;6222681;23;20424;-78
2021/01/28 01:40:56;;;;;;;1.67;1.58;;;;;;;10.55;87.51;99236.41;6201185;23;20008;-80
2021/01/28 01:43:26;;;;;;;1.10;1.10;;;;;;;10.64;87.25;99251.06;6221675;23;20023;-80
2021/01/28 01:46:04;;;;;;;0.90;0.90;;;;;;;10.63;87.67;99224.00;6195094;23;20059;-80
2021/01/28 01:48:50;;;;;;;1.75;1.65;;;;;;;10.63;87.40;99235.75;6211610;23;20005;-80
2021/01/28 01:51:52;;;;;;;1.67;1.58;;;;;;;10.57;87.71;99223.28;6211702;23;20007;-79
2021/01/28 01:54:56;;;;;;;1.58;1.48;;;;;;;10.50;87.21;99198.22;6186952;23;20297;-80
2021/01/28 01:57:33;;;;;;;0.47;0.47;;;;;;;10.45;87.88;99181.91;6218136;23;20015;-79
2021/01/28 02:00:07;;;;;;;0.50;0.50;;;;;;;10.62;87.70;99203.25;6217276;23;20004;-79
2021/01/28 02:02:37;;;;;;;0.70;0.70;;;;;;;10.46;87.86;99172.59;6217197;23;20011;-80
2021/01/28 02:05:17;;;;;;;0.43;0.43;;;;;;;10.61;87.44;99187.94;6217246;23;20096;-81
2021/01/28 02:07:57;;;;;;;;;;;;;;;;;;;;;
2021/01/28 02:10:26;;;;;;;0.40;0.40;;;;;;;10.54;87.97;99135.56;6225367;23;20036;-81
2021/01/28 02:12:52;;;;;;;0.10;0.10;;;;;;;10.64;87.74;99158.13;6220275;23;20058;-81
2021/01/28 02:15:19;;;;;;;0.20;0.20;;;;;;;10.60;87.49;99168.00;6220254;23;20000;-81
2021/01/28 02:17:49;;;;;;;0.20;0.20;;;;;;;10.61;87.65;99163.34;6221745;23;20091;-82
2021/01/28 02:20:26;;;;;;;0.20;0.20;;;;;;;10.60;87.27;99161.72;6189615;23;20019;-84
2021/01/28 02:23:07;;;;;;;0.45;0.45;;;;;;;10.63;87.54;99151.00;6194540;23;20007;-81
2021/01/28 02:25:36;;;;;;;0.22;0.22;;;;;;;10.55;87.87;99153.59;6218150;23;20005;-81
2021/01/28 02:28:23;;;;;;;0.20;0.20;;;;;;;10.52;87.79;99140.53;6225271;23;20004;-79
2021/01/28 02:30:57;;;;;;;0.10;0.10;;;;;;;10.49;87.66;99155.59;6235717;22;20015;-82
2021/01/28 02:33:47;;;;;;;0.30;0.30;;;;;;;10.57;87.94;99152.22;6217391;23;20016;-82
2021/01/28 02:37:04;;;;;;;;;;;;;;;;;;;;;
2021/01/28 02:40:20;;;;;;;0.10;0.10;;;;;;;10.52;88.01;99132.34;6202554;23;20009;-80
2021/01/28 02:42:48;;;;;;;0.10;0.10;;;;;;;10.37;87.93;99100.59;6201030;23;20000;-79
2021/01/28 02:45:23;;;;;;;0.10;0.10;;;;;;;10.58;87.56;99129.22;6164534;23;20043;-79
2021/01/28 02:47:58;;;;;;;0.30;0.20;;;;;;;10.42;88.23;99108.69;6211030;23;20087;-77
2021/01/28 02:50:27;;;;;;;0.13;0.10;;;;;;;10.48;88.46;99104.78;6211475;23;20012;-77
2021/01/28 02:52:54;;;;;;;0.25;0.20;;;;;;;10.45;87.94;99097.16;6215028;23;20004;-76
2021/01/28 02:55:22;;;;;;;0.15;0.10;;;;;;;10.56;88.28;99106.84;6182022;23;20008;-76
2021/01/28 02:57:47;;;;;;;0.17;0.00;;;;;;;10.51;88.92;99093.25;6206183;23;20455;-76
2021/01/28 03:00:16;;;;;;;0.20;0.10;;;;;;;10.63;88.16;99090.88;6214092;23;20091;-76
2021/01/28 03:02:50;;;;;;;0.13;0.13;;;;;;;10.59;88.05;99067.97;6209547;23;19996;-76
2021/01/28 03:05:16;;;;;;;0.10;0.10;;;;;;;10.61;87.93;99076.66;6174159;23;20004;-76
2021/01/28 03:07:43;;;;;;;0.00;0.00;;;;;;;10.56;88.73;99063.09;6212141;23;20383;-76
2021/01/28 03:10:10;;;;;;;0.10;0.00;;;;;;;10.68;88.31;99073.56;6212490;23;20004;-76
2021/01/28 03:12:45;;;;;;;0.10;0.00;;;;;;;10.71;88.51;99066.69;6201613;23;20087;-75
2021/01/28 03:15:13;;;;;;;0.13;0.00;;;;;;;10.60;88.96;99045.00;6165092;23;20095;-76
2021/01/28 03:17:39;;;;;;;0.10;0.00;;;;;;;10.73;88.27;99045.31;6210089;23;20019;-77
2021/01/28 03:20:08;;;;;;;0.10;0.00;;;;;;;10.76;87.92;99055.66;6214125;23;20009;-77
2021/01/28 03:22:55;;;;;;;0.00;0.00;;;;;;;10.80;88.20;99048.47;6210938;23;20035;-77
2021/01/28 03:25:32;;;;;;;0.47;0.00;;;;;;;10.76;88.58;99028.31;6214838;23;20024;-76
2021/01/28 03:27:58;;;;;;;0.10;0.00;;;;;;;10.77;88.23;99024.47;6207890;23;20428;-77
2021/01/28 03:30:30;;;;;;;0.03;0.00;;;;;;;10.87;88.01;99024.28;6212094;23;20051;-78
2021/01/28 03:32:56;;;;;;;0.00;0.00;;;;;;;10.86;88.21;99022.66;6209444;23;20087;-80
2021/01/28 03:35:25;;;;;;;0.00;0.00;;;;;;;10.83;88.37;99012.31;6164952;23;20012;-78
2021/01/28 03:37:51;;;;;;;0.10;0.00;;;;;;;10.92;88.06;99016.00;6209197;23;20001;-78
2021/01/28 03:40:20;;;;;;;0.08;0.00;;;;;;;10.92;88.74;99013.25;6212392;23;20004;-78
2021/01/28 03:42:45;;;;;;;0.00;0.00;;;;;;;10.94;88.13;99019.22;6210246;23;20001;-79
2021/01/28 03:45:11;;;;;;;0.00;0.00;;;;;;;10.90;88.37;99010.00;6182154;23;20009;-78
2021/01/28 03:47:40;;;;;;;0.08;0.00;;;;;;;11.05;88.46;99019.03;6186660;23;20058;-78
2021/01/28 03:50:10;;;;;;;0.68;0.03;;;;;;;10.99;87.99;99010.94;6187549;23;20008;-77
2021/01/28 03:52:36;;;;;;;0.00;0.00;;;;;;;11.00;88.23;99001.59;6212076;23;20004;-77
2021/01/28 03:55:02;;;;;;;0.00;0.00;;;;;;;11.09;87.96;99014.56;6161529;23;20040;-77
2021/01/28 03:57:28;;;;;;;0.00;0.00;;;;;;;11.06;88.27;99009.72;6210352;23;20076;-77
2021/01/28 03:59:53;;;;;;;0.00;0.00;;;;;;;11.07;88.10;99009.41;6161257;23;20297;-76
2021/01/28 04:02:21;;;;;;;0.00;0.00;;;;;;;10.98;88.88;98994.78;6210092;23;20011;-77
2021/01/28 04:04:46;;;;;;;0.00;0.00;;;;;;;11.05;88.13;98999.88;6187423;23;20015;-75
2021/01/28 04:07:15;;;;;;;0.00;0.00;;;;;;;11.07;88.80;98994.91;6196078;23;20012;-76
2021/01/28 04:09:53;;;;;;;;;;;;;;;;;;;;;
2021/01/28 04:12:18;;;;;;;0.10;0.10;;;;;;;11.13;88.23;99007.38;6213804;23;20075;-76
2021/01/28 04:14:44;;;;;;;0.00;0.00;;;;;;;11.19;88.41;99017.09;6158567;23;20095;-76
2021/01/28 04:17:12;;;;;;;0.00;0.00;;;;;;;11.10;87.93;98988.84;6181577;23;20087;-76
2021/01/28 04:19:37;;;;;;;0.05;0.00;;;;;;;11.17;88.72;98994.72;6181978;23;20340;-76
2021/01/28 04:22:03;;;;;;;0.10;0.10;;;;;;;11.16;87.88;98998.56;6183023;23;20096;-76
2021/01/28 04:24:28;;;;;;;0.50;0.10;;;;;;;11.06;88.12;98999.56;6192917;23;20071;-77
2021/01/28 04:26:54;;;;;;;0.00;0.00;;;;;;;11.04;88.25;99000.97;6201445;23;20721;-78
2021/01/28 04:29:19;;;;;;;0.13;0.10;;;;;;;11.07;88.37;99000.38;6174516;23;20012;-78
2021/01/28 04:31:45;;;;;;;0.10;0.10;;;;;;;11.11;88.32;99004.13;6157600;23;20005;-78
2021/01/28 04:34:10;;;;;;;0.10;0.10;;;;;;;11.10;88.38;99003.31;6154825;23;20332;-78
2021/01/28 04:36:36;;;;;;;0.20;0.20;;;;;;;11.13;88.69;99007.38;6176690;23;20005;-78
2021/01/28 04:39:06;;;;;;;0.17;0.10;;;;;;;11.10;88.11;98994.31;6184781;23;20076;-78
2021/01/28 04:41:32;;;;;;;0.00;0.00;;;;;;;11.20;88.23;98994.09;6179458;23;20005;-78
2021/01/28 04:44:00;;;;;;;0.20;0.20;;;;;;;11.15;88.35;98983.25;6186725;23;20008;-78
2021/01/28 04:46:36;;;;;;;2.30;0.50;;;;;;;11.20;88.12;98993.28;6180683;23;20009;-77
2021/01/28 04:49:12;;;;;;;0.45;0.20;;;;;;;11.10;88.20;98980.63;6184955;23;20516;-78
2021/01/28 04:51:42;;;;;;;0.03;0.03;;;;;;;11.13;88.08;98974.56;6182911;23;20070;-77
2021/01/28 04:54:22;;;;;;;0.20;0.10;;;;;;;11.16;87.97;98973.94;6203104;23;20514;-78
2021/01/28 04:56:49;;;;;;;0.20;0.10;;;;;;;11.26;87.92;98998.34;6174278;23;20005;-78
2021/01/28 04:59:27;;;;;;;0.85;0.15;;;;;;;11.28;88.22;98984.38;6177906;23;20005;-79
2021/01/28 05:02:13;;;;;;;0.10;0.00;;;;;;;11.16;87.88;98947.38;6207678;23;20005;-78
2021/01/28 05:11:38;;;;;;;0.10;0.00;;;;;;;11.27;88.67;98971.78;6182818;23;20355;-78
2021/01/28 05:14:49;;;;;;;0.75;0.20;;;;;;;11.33;88.48;98976.84;6181328;23;20087;-78
2021/01/28 05:25:43;;;;;;;0.10;0.08;;;;;;;11.26;88.36;98943.63;5933225;24;20476;-78
2021/01/28 05:29:15;;;;;;;;;;;;;;;;;;;;;
2021/01/28 05:31:44;;;;;;;2.45;0.25;;;;;;;11.34;88.40;98966.72;6024027;23;20068;-76
2021/01/28 05:34:12;;;;;;;0.75;0.10;;;;;;;11.29;88.80;98966.84;6177037;23;20048;-76
2021/01/28 05:37:24;;;;;;;0.90;0.10;;;;;;;11.46;88.62;98977.97;6206435;23;20013;-75
2021/01/28 05:40:07;;;;;;;0.00;0.00;;;;;;;11.40;88.42;98973.69;6208143;23;20009;-76
2021/01/28 05:42:32;;;;;;;0.57;0.10;;;;;;;11.42;88.62;98963.25;6202559;23;20368;-74
2021/01/28 05:44:58;;;;;;;0.17;0.10;;;;;;;11.44;88.64;98965.69;6178416;23;20020;-74
2021/01/28 05:47:23;;;;;;;1.25;0.10;;;;;;;11.52;88.11;98975.88;6180252;23;20037;-77
2021/01/28 05:49:50;;;;;;;1.83;0.17;;;;;;;11.52;88.70;98973.97;6199270;23;20016;-76
2021/01/28 05:52:32;;;;;;;0.30;0.05;;;;;;;11.51;88.55;98966.09;6179150;23;20012;-76
2021/01/28 05:55:11;;;;;;;0.52;0.10;;;;;;;11.55;88.68;98969.81;6178340;23;20009;-75
2021/01/28 05:57:42;;;;;;;0.47;0.10;;;;;;;11.58;88.37;98974.69;6184568;23;20432;-76
2021/01/28 06:00:14;;;;;;;0.10;0.10;;;;;;;11.49;88.36;98949.13;6176038;23;20055;-75
2021/01/28 06:03:15;;;;;;;;;;;;;;;;;;;;;
2021/01/28 06:06:39;;;;;;;0.95;0.17;;;;;;;11.54;88.48;98962.72;6183556;23;20047;-75
2021/01/28 06:09:30;;;;;;;0.08;0.08;;;;;;;11.62;88.40;98952.97;6156132;23;20438;-76
2021/01/28 06:12:13;;;;;;;0.20;0.00;;;;;;;11.56;88.08;98948.72;6222419;23;20020;-76
2021/01/28 06:14:59;;;;;;;0.30;0.10;;;;;;;11.55;88.52;98956.13;6212105;23;20012;-76
2021/01/28 06:17:38;;;;;;;;;;;;;;;11.61;88.46;98959.53;6197180;23;20075;-76
2021/01/28 06:20:23;;;;;;;0.20;0.10;;;;;;;11.55;88.78;98949.84;6180739;23;19958;-76
2021/01/28 06:23:02;;;;;;;0.45;0.10;;;;;;;11.58;88.23;98941.84;6205649;23;20548;-76
2021/01/28 06:25:37;;;;;;;0.40;0.20;;;;;;;11.57;88.77;98953.09;6213117;23;20072;-75
2021/01/28 06:28:23;;;;;;;;;;;;;;;11.60;88.71;98960.69;6206714;23;20005;-77
2021/01/28 06:31:37;;;;;;;1.75;0.30;;;;;;;11.55;89.20;98966.25;6178474;23;19995;-76
2021/01/28 06:34:28;;;;;;;0.00;0.00;;;;;;;11.62;88.80;98967.47;6093544;23;20092;-76
2021/01/28 06:37:08;;;;;;;3.03;0.10;;;;;;;11.49;88.99;98946.41;6209836;23;20016;-76
2021/01/28 06:39:39;;;;;;;0.50;0.20;;;;;;;11.60;88.52;98947.78;6185068;23;20012;-76
2021/01/28 06:42:08;;;;;;;0.65;0.10;;;;;;;11.63;88.58;98958.13;6197918;23;20036;-76
2021/01/28 06:44:43;;;;;;;0.10;0.10;;;;;;;11.50;88.38;98937.06;6210275;23;20005;-75
2021/01/28 06:47:09;;;;;;;;;;;;;;;11.57;89.06;98942.94;6185901;23;19997;-75
2021/01/28 06:49:40;;;;;;;;;;;;;;;11.52;88.70;98949.34;6209165;23;19930;-72
2021/01/28 06:52:32;;;;;;;0.57;0.10;;;;;;;11.51;88.81;98950.47;6211586;23;19903;-74
2021/01/28 06:55:05;;;;;;;0.30;0.20;;;;;;;11.54;88.81;98949.03;6202544;23;20015;-72
2021/01/28 06:57:54;;;;;;;0.73;0.10;;;;;;;11.53;89.17;98955.63;6212546;23;20011;-75
2021/01/28 07:00:38;;;;;;;1.50;0.30;;;;;;;11.50;89.50;98958.97;6202524;23;20047;-73
2021/01/28 07:03:20;;;;;;;0.45;0.10;;;;;;;11.46;89.26;98947.03;6211724;23;20430;-77
2021/01/28 07:06:07;;;;;;;1.52;0.32;;;;;;;11.54;89.38;98960.00;6213665;23;20017;-76
2021/01/28 07:09:09;;;;;;;0.30;0.08;;;;;;;11.58;89.31;98965.63;6206546;23;20155;-77
2021/01/28 07:11:41;;;;;;;1.60;0.30;;;;;;;11.55;88.79;98958.88;6204690;23;20001;-77
2021/01/28 07:14:15;;;;;;;0.93;0.20;;;;;;;11.55;89.13;98953.41;6213142;23;20000;-76
2021/01/28 07:16:58;;;;;;;0.13;0.10;;;;;;;11.59;89.15;98956.31;6201506;23;20023;-77
2021/01/28 07:19:30;;;;;;;2.83;0.50;;;;;;;11.50;88.62;98953.50;6171951;23;20017;-77
2021/01/28 07:21:57;;;;;;;1.27;0.30;;;;;;;11.60;88.83;98963.41;6157643;23;20051;-78
2021/01/28 07:24:36;;;;;;;1.23;0.40;;;;;;;11.50;89.02;98978.13;6181954;23;20008;-76
2021/01/28 07:27:06;;;;;;;1.13;0.20;;;;;;;11.50;88.69;98980.88;6181511;23;20052;-76
2021/01/28 07:29:34;;;;;;;1.60;0.28;;;;;;;11.49;89.17;98991.03;6177665;23;20005;-75
2021/01/28 07:32:04;;;;;;;1.90;0.30;;;;;;;11.47;89.05;99008.88;6182438;23;20008;-77
2021/01/28 07:34:48;;;;;;;;;;;;;;;;;;;;;
2021/01/28 07:37:28;;;;;;;4.30;0.40;;;;;;;11.56;89.13;99009.75;6182039;23;20100;-77
2021/01/28 07:39:56;;;;;;;3.85;0.30;;;;;;;11.52;88.78;99023.25;6170494;23;20087;-77
2021/01/28 07:42:21;;;;;;;2.00;0.65;;;;;;;11.55;88.57;99043.75;6156640;23;20416;-76
2021/01/28 07:44:56;;;;;;;2.33;0.40;;;;;;;11.47;88.10;99036.25;6183836;23;20008;-75
2021/01/28 07:47:33;;;;;;;3.22;0.57;;;;;;;11.47;88.13;99036.25;6185639;23;20013;-75
2021/01/28 07:50:14;;;;;;;4.07;0.88;;;;;;;11.35;88.00;99045.78;6194134;23;20591;-78
2021/01/28 07:52:43;;;;;;;9.30;1.40;;;;;;;11.31;88.07;99033.81;6202299;23;20017;-79
2021/01/28 07:55:41;;;;;;;8.57;0.75;;;;;;;11.35;87.74;99053.97;6203933;23;20067;-76
2021/01/28 07:58:24;;;;;;;4.18;0.85;;;;;;;11.22;87.43;99030.16;6161068;23;20009;-79
2021/01/28 08:00:50;;;;;;;6.82;0.88;;;;;;;11.16;87.51;99043.13;6184517;23;20067;-78
2021/01/28 08:03:31;;;;;;;1.67;0.65;;;;;;;11.13;87.81;99048.41;6176951;23;20405;-74
2021/01/28 08:06:03;;;;;;;3.33;0.70;;;;;;;11.13;87.83;99043.75;6183204;23;20074;-77
2021/01/28 08:08:30;;;;;;;3.72;0.70;;;;;;;11.01;88.00;99035.25;6180166;23;20037;-78
2021/01/28 08:11:12;;;;;;;7.45;1.20;;;;;;;11.10;87.78;99049.03;6181924;23;19997;-78
2021/01/28 08:13:37;;;;;;;6.60;1.13;;;;;;;11.05;87.84;99040.91;6179963;23;19993;-78
2021/01/28 08:16:06;;;;;;;3.78;0.77;;;;;;;11.15;87.71;99051.66;6181361;23;20015;-79
2021/01/28 08:18:40;;;;;;;13.95;1.05;;;;;;;11.14;87.71;99061.78;6204984;23;20020;-80
2021/01/28 08:21:27;;;;;;;11.93;0.68;;;;;;;11.13;87.23;99065.63;6188680;23;20087;-79
2021/01/28 08:23:56;;;;;;;3.45;0.60;;;;;;;11.11;87.34;99067.88;6160432;23;20019;-80
2021/01/28 08:26:30;;;;;;;10.32;1.65;;;;;;;11.21;87.23;99083.25;6185997;23;20024;-79
2021/01/28 08:29:21;;;;;;;5.55;0.75;;;;;;;11.20;87.32;99089.88;6206922;23;20704;-79
2021/01/28 08:31:57;;;;;;;5.18;0.82;;;;;;;11.13;86.77;99094.94;6211841;23;20004;-78
2021/01/28 08:34:25;;;;;;;5.70;0.90;;;;;;;11.17;86.37;99104.16;6210789;23;20095;-78
2021/01/28 08:36:50;;;;;;;7.05;1.13;;;;;;;11.13;85.57;99097.66;6147789;23;20024;-81
2021/01/28 08:39:21;;;;;;;6.13;1.05;;;;;;;11.20;84.59;99113.66;6204067;23;20001;-79
2021/01/28 08:42:00;;;;;;;5.28;1.05;;;;;;;11.23;83.71;99113.91;6204131;23;20008;-79
2021/01/28 08:44:26;;;;;;;7.90;1.00;;;;;;;11.24;83.58;99110.03;6162942;23;20139;-81
2021/01/28 08:47:16;;;;;;;15.43;1.80;;;;;;;11.21;82.68;99094.22;6179746;23;20032;-82
2021/01/28 08:49:53;;;;;;;7.43;1.95;;;;;;;11.28;82.13;99100.09;6201888;23;20078;-80
2021/01/28 08:52:23;;;;;;;8.57;1.88;;;;;;;11.22;81.96;99084.09;6212411;23;20497;-79
2021/01/28 08:54:48;;;;;;;13.13;2.22;;;;;;;11.29;81.13;99107.19;6182082;23;20016;-79
2021/01/28 08:57:19;;;;;;;8.45;1.77;;;;;;;11.37;80.55;99104.88;6209392;23;20331;-79
2021/01/28 08:59:48;;;;;;;11.00;1.98;;;;;;;11.33;80.14;99113.69;6180146;23;20123;-81
2021/01/28 09:02:23;;;;;;;13.68;2.28;;;;;;;11.36;80.22;99134.19;6207276;23;20007;-84
2021/01/28 09:05:02;;;;;;;4.80;2.05;;;;;;;11.37;80.07;99129.50;6210666;23;20334;-80
2021/01/28 09:07:51;;;;;;;11.23;1.80;;;;;;;11.38;79.98;99114.72;6183984;23;20331;-80
2021/01/28 09:10:40;;;;;;;14.07;2.50;;;;;;;11.40;79.61;99118.75;6206615;23;20092;-80
2021/01/28 09:13:19;;;;;;;20.88;1.77;;;;;;;11.41;79.61;99111.38;6211802;23;20464;-80
2021/01/28 09:15:46;;;;;;;18.80;2.22;;;;;;;11.38;79.48;99121.00;6207075;23;20175;-80
2021/01/28 09:18:34;;;;;;;14.63;1.95;;;;;;;11.47;79.45;99121.09;6206382;23;20017;-78
2021/01/28 09:21:08;;;;;;;10.55;1.45;;;;;;;11.49;78.44;99113.38;6208189;23;20020;-80
2021/01/28 09:23:37;;;;;;;16.70;2.77;;;;;;;11.60;77.92;99112.06;6212430;23;20008;-79
2021/01/28 09:26:35;;;;;;;12.00;1.95;;;;;;;11.81;77.36;99128.91;6183875;23;20009;-80
2021/01/28 09:29:19;;;;;;;19.08;2.67;;;;;;;11.84;77.03;99119.25;6111052;23;20005;-81
2021/01/28 09:31:50;;;;;;;18.13;1.98;;;;;;;11.84;77.35;99122.81;6210945;23;20008;-80
2021/01/28 09:34:27;;;;;;;8.65;1.63;;;;;;;11.95;77.25;99145.34;6214619;23;20088;-79
2021/01/28 09:37:07;;;;;;;22.30;2.75;;;;;;;12.03;77.34;99144.63;6211738;23;20106;-80
2021/01/28 09:39:43;;;;;;;10.93;1.63;;;;;;;12.01;77.02;99135.88;6213163;23;20012;-80
2021/01/28 09:42:21;;;;;;;14.27;1.65;;;;;;;12.10;76.05;99152.41;6187850;23;20079;-78
2021/01/28 09:44:49;;;;;;;12.63;1.67;;;;;;;12.11;77.10;99134.06;6210641;23;20000;-76
2021/01/28 09:47:17;;;;;;;13.57;1.80;;;;;;;12.16;75.82;99151.22;6154640;23;20009;-77
2021/01/28 09:49:49;;;;;;;10.52;1.67;;;;;;;12.14;76.40;99141.66;6213752;23;20383;-80
2021/01/28 09:52:25;;;;;;;18.60;1.83;;;;;;;12.12;75.14;99146.63;6214943;23;20084;-78
2021/01/28 09:54:53;;;;;;;5.45;2.03;;;;;;;12.20;75.35;99159.63;6212983;23;20004;-77
2021/01/28 09:57:21;;;;;;;8.48;1.48;;;;;;;12.11;75.25;99147.78;6205975;23;20143;-79
2021/01/28 09:59:46;;;;;;;8.55;1.45;;;;;;;12.11;75.04;99156.00;6185676;23;20083;-79
2021/01/28 10:02:23;;;;;;;11.05;2.15;;;;;;;12.08;75.64;99159.34;6189449;23;20386;-77
2021/01/28 10:04:48;;;;;;;13.32;2.20;;;;;;;12.04;75.35;99157.19;6188064;23;20083;-79
2021/01/28 10:07:15;;;;;;;14.48;1.52;;;;;;;12.11;75.90;99164.22;6212517;23;20360;-79
2021/01/28 10:09:42;;;;;;;11.13;2.17;;;;;;;12.17;75.19;99173.94;6213155;23;20000;-78
2021/01/28 10:12:08;;;;;;;16.02;2.60;;;;;;;12.23;75.43;99172.69;6214332;23;20323;-78
2021/01/28 10:14:33;;;;;;;12.25;2.33;;;;;;;12.28;74.97;99172.59;6161723;23;20012;-79
2021/01/28 10:16:59;;;;;;;21.90;2.92;;;;;;;12.38;74.70;99194.31;6155852;23;20020;-80
2021/01/28 10:19:24;;;;;;;15.75;2.08;;;;;;;12.36;74.92;99182.81;6132025;23;20044;-79
2021/01/28 10:21:50;;;;;;;17.90;2.25;;;;;;;12.54;75.01;99199.44;6184170;23;20013;-79
2021/01/28 10:24:15;;;;;;;14.13;2.60;;;;;;;12.78;73.67;99193.69;6177594;23;20013;-77
2021/01/28 10:26:41;;;;;;;11.65;2.45;;;;;;;13.09;73.05;99204.69;6176479;23;20408;-77
2021/01/28 10:29:06;;;;;;;11.93;2.55;;;;;;;13.62;72.56;99207.78;6183889;23;20012;-77
2021/01/28 10:31:42;;;;;;;15.40;2.20;;;;;;;14.43;68.84;99225.03;6182983;23;20503;-78
2021/01/28 10:34:18;;;;;;;17.90;2.92;;;;;;;14.55;68.31;99219.69;6182876;23;20005;-78
2021/01/28 10:36:43;;;;;;;12.20;2.22;;;;;;;14.61;67.40;99210.16;6164928;23;20443;-79
2021/01/28 10:39:09;;;;;;;8.25;1.42;;;;;;;14.71;68.44;99233.81;6202782;23;20048;-76
2021/01/28 10:41:38;;;;;;;17.38;2.40;;;;;;;14.58;67.44;99240.25;6194752;23;20044;-78
2021/01/28 10:44:03;;;;;;;11.75;2.05;;;;;;;14.17;67.50;99222.22;6194903;23;19997;-79
2021/01/28 10:46:42;;;;;;;;;;;;;;;;;;;;;
2021/01/28 10:49:09;;;;;;;17.17;2.88;;;;;;;13.97;70.03;99227.16;6194057;23;20040;-77
2021/01/28 10:51:42;;;;;;;11.38;2.45;;;;;;;13.98;70.10;99248.03;6192412;23;20025;-78
2021/01/28 10:54:10;;;;;;;11.48;1.92;;;;;;;13.87;69.44;99235.69;6214192;23;20381;-80
2021/01/28 10:56:36;;;;;;;7.97;2.55;;;;;;;13.90;70.18;99248.78;6177031;23;20013;-78
2021/01/28 10:59:04;;;;;;;12.02;2.60;;;;;;;13.83;70.05;99242.94;6157533;23;20325;-78
2021/01/28 11:01:30;;;;;;;12.73;2.95;;;;;;;13.83;69.79;99259.41;6177292;23;20005;-78
2021/01/28 11:03:55;;;;;;;22.27;3.05;;;;;;;13.73;69.93;99233.84;6206760;23;20007;-78
2021/01/28 11:06:28;;;;;;;11.40;2.60;;;;;;;13.87;69.14;99238.44;6181591;23;20029;-78
2021/01/28 11:08:53;;;;;;;16.42;2.17;;;;;;;14.17;69.22;99260.72;6207573;23;20071;-76
2021/01/28 11:11:19;;;;;;;9.68;1.63;;;;;;;14.25;68.82;99249.75;6183103;23;20084;-75
2021/01/28 11:13:57;;;;;;;;;;;;;;;;;;;;;
2021/01/28 11:16:34;;;;;;;14.85;2.35;;;;;;;14.11;69.17;99258.09;6176194;23;20101;-83
2021/01/28 11:19:03;;;;;;;9.57;2.30;;;;;;;14.09;69.91;99262.28;6163491;23;20013;-79
2021/01/28 11:21:34;;;;;;;14.20;3.58;;;;;;;13.98;69.67;99252.72;6160008;23;20033;-80
2021/01/28 11:24:12;;;;;;;;;;;;;;;;;;;;;
2021/01/28 11:26:45;;;;;;;13.43;2.40;;;;;;;13.96;70.37;99258.53;6148129;23;20153;-80
2021/01/28 11:29:27;;;;;;;22.27;2.95;;;;;;;14.20;69.14;99254.56;6183353;23;20024;-81
2021/01/28 11:31:55;;;;;;;13.80;2.60;;;;;;;14.54;69.59;99245.56;6154915;23;20321;-79
2021/01/28 11:34:21;;;;;;;15.98;2.53;;;;;;;15.48;66.60;99247.84;6183116;23;20024;-82
2021/01/28 11:36:49;;;;;;;10.40;2.58;;;;;;;16.23;63.75;99252.94;6152482;23;20008;-81
2021/01/28 11:39:24;;;;;;;13.32;3.35;;;;;;;17.36;59.46;99267.09;6158105;23;20000;-80
2021/01/28 11:41:52;;;;;;;10.82;2.15;;;;;;;17.76;56.28;99243.59;6156173;23;20086;-79
2021/01/28 11:44:17;;;;;;;11.65;2.13;;;;;;;17.99;55.44;99268.06;6157848;23;20432;-79
2021/01/28 11:46:46;;;;;;;8.43;1.95;;;;;;;18.19;55.24;99267.16;6152949;23;20008;-79
2021/01/28 11:49:25;;;;;;;;;;;;;;;;;;;;;
2021/01/28 11:52:00;;;;;;;13.75;1.75;;;;;;;18.56;53.60;99253.31;6182283;23;20072;-81
2021/01/28 11:54:38;;;;;;;;;;;;;;;;;;;;;
2021/01/28 11:57:09;;;;;;;11.70;3.17;;;;;;;18.26;54.14;99270.16;6179848;23;20076;-81
2021/01/28 11:59:40;;;;;;;11.45;2.40;;;;;;;18.63;53.83;99275.69;6177080;23;20088;-80
2021/01/28 12:02:05;;;;;;;12.13;2.00;;;;;;;19.47;52.28;99292.78;6176861;23;20001;-80
2021/01/28 12:04:36;;;;;;;12.60;1.67;;;;;;;20.15;50.50;99274.38;6158239;23;20047;-81
2021/01/28 12:07:24;;;;;;;3.47;1.80;;;;;;;20.32;49.75;99268.44;6154817;23;20004;-81
2021/01/28 12:10:01;;;;;;;6.72;1.60;;;;;;;20.08;50.65;99258.34;6132762;23;20395;-79
2021/01/28 12:12:43;;;;;;;12.45;2.33;;;;;;;19.53;50.21;99269.19;6150623;23;20012;-80
2021/01/28 12:15:09;;;;;;;10.27;1.85;;;;;;;18.71;51.85;99270.38;6151470;23;20032;-80
2021/01/28 12:17:38;;;;;;;7.45;2.13;;;;;;;18.46;52.59;99264.88;6158456;23;20020;-80
2021/01/28 12:20:07;;;;;;;5.78;2.35;;;;;;;17.95;53.43;99252.16;6179449;23;20431;-80
2021/01/28 12:22:36;;;;;;;8.20;1.52;;;;;;;17.64;55.11;99252.69;6176775;23;20005;-78
2021/01/28 12:25:19;;;;;;;15.85;2.17;;;;;;;17.32;55.52;99246.00;6163413;23;20028;-78
2021/01/28 12:27:45;;;;;;;6.50;2.08;;;;;;;16.87;56.03;99240.06;6210367;23;20008;-79
2021/01/28 12:30:21;;;;;;;7.53;1.83;;;;;;;16.64;57.23;99255.31;6209457;23;20340;-80
2021/01/28 12:32:57;;;;;;;9.63;2.58;;;;;;;16.34;58.06;99260.84;6190745;23;20022;-76
2021/01/28 12:35:23;;;;;;;16.50;3.00;;;;;;;15.85;59.39;99242.72;6190012;23;20032;-79
2021/01/28 12:37:52;;;;;;;6.15;2.38;;;;;;;15.64;60.20;99250.09;6210542;23;20008;-78
2021/01/28 12:40:22;;;;;;;8.23;1.63;;;;;;;15.53;61.02;99241.34;6186770;23;20083;-78
2021/01/28 12:42:47;;;;;;;7.32;1.73;;;;;;;15.18;61.81;99219.38;6207406;23;20000;-76